sensor_id;sensor_type;location;lat;lon;timestamp;temperature;humidity
5631;DHT22;2837;50.990;7.124;2022-10-31T06:02:48;14.40;99.90
5631;DHT22;2837;50.990;7.124;2022-10-31T06:05:15;14.40;99.90
5631;DHT22;2837;50.990;7.124;2022-10-31T06:07:41;14.40;99.90
5631;DHT22;2837;50.990;7.124;2022-10-31T06:10:08;14.40;99.90
5631;DHT22;2837;50.990;7.124;2022-10-31T06:12:35;14.40;99.90
5631;DHT22;2837;50.990;7.124;2022-10-31T06:15:04;14.30;99.90
5631;DHT22;2837;50.990;7.124;2022-10-31T06:17:30;14.40;99.90
5631;DHT22;2837;50.990;7.124;2022-10-31T06:19:56;14.30;99.90
5631;DHT22;2837;50.990;7.124;2022-10-31T06:22:21;14.30;99.90
5631;DHT22;2837;50.990;7.124;2022-10-31T06:24:47;14.20;99.90
5631;DHT22;2837;50.990;7.124;2022-10-31T06:27:12;14.10;99.90
5631;DHT22;2837;50.990;7.124;2022-10-31T06:29:38;14.10;99.90
5631;DHT22;2837;50.990;7.124;2022-10-31T06:32:03;14.20;99.90
5631;DHT22;2837;50.990;7.124;2022-10-31T06:34:29;14.10;99.90
5631;DHT22;2837;50.990;7.124;2022-10-31T06:36:54;14.10;99.90
5631;DHT22;2837;50.990;7.124;2022-10-31T06:39:20;14.10;99.90
5631;DHT22;2837;50.990;7.124;2022-10-31T06:41:47;14.20;99.90
5631;DHT22;2837;50.990;7.124;2022-10-31T06:44:13;14.20;99.90
5631;DHT22;2837;50.990;7.124;2022-10-31T06:46:39;14.10;99.90
5631;DHT22;2837;50.990;7.124;2022-10-31T06:49:04;14.20;99.90
5631;DHT22;2837;50.990;7.124;2022-10-31T06:51:30;14.00;99.90
5631;DHT22;2837;50.990;7.124;2022-10-31T06:53:55;14.10;99.90
5631;DHT22;2837;50.990;7.124;2022-10-31T06:56:21;14.20;99.90
5631;DHT22;2837;50.990;7.124;2022-10-31T06:58:47;14.20;99.90
5631;DHT22;2837;50.990;7.124;2022-10-31T07:01:12;14.30;99.90
5631;DHT22;2837;50.990;7.124;2022-10-31T07:03:38;14.20;99.90
5631;DHT22;2837;50.990;7.124;2022-10-31T07:06:03;14.30;99.90
5631;DHT22;2837;50.990;7.124;2022-10-31T07:08:29;14.30;99.90
5631;DHT22;2837;50.990;7.124;2022-10-31T07:10:56;14.20;99.90
5631;DHT22;2837;50.990;7.124;2022-10-31T07:13:22;14.20;99.90
5631;DHT22;2837;50.990;7.124;2022-10-31T07:15:52;14.20;99.90
5631;DHT22;2837;50.990;7.124;2022-10-31T07:18:19;14.20;99.90
5631;DHT22;2837;50.990;7.124;2022-10-31T07:20:44;14.20;99.90
5631;DHT22;2837;50.990;7.124;2022-10-31T07:23:10;14.20;99.90
5631;DHT22;2837;50.990;7.124;2022-10-31T07:25:37;14.20;99.90
5631;DHT22;2837;50.990;7.124;2022-10-31T07:28:03;14.20;99.90
5631;DHT22;2837;50.990;7.124;2022-10-31T07:30:29;14.20;99.90
5631;DHT22;2837;50.990;7.124;2022-10-31T07:32:54;14.30;99.90
5631;DHT22;2837;50.990;7.124;2022-10-31T07:35:26;14.30;99.90
5631;DHT22;2837;50.990;7.124;2022-10-31T07:37:52;14.40;99.90
5631;DHT22;2837;50.990;7.124;2022-10-31T07:40:18;14.50;99.90
5631;DHT22;2837;50.990;7.124;2022-10-31T07:42:46;14.50;99.90
5631;DHT22;2837;50.990;7.124;2022-10-31T07:45:14;14.50;99.90
5631;DHT22;2837;50.990;7.124;2022-10-31T07:47:45;14.60;99.90
5631;DHT22;2837;50.990;7.124;2022-10-31T07:50:14;14.60;99.90
5631;DHT22;2837;50.990;7.124;2022-10-31T07:52:40;14.60;99.90
5631;DHT22;2837;50.990;7.124;2022-10-31T07:55:06;14.60;99.90
5631;DHT22;2837;50.990;7.124;2022-10-31T07:57:31;14.70;99.90
5631;DHT22;2837;50.990;7.124;2022-10-31T07:59:57;14.60;99.90
5631;DHT22;2837;50.990;7.124;2022-10-31T08:02:23;14.70;99.90
5631;DHT22;2837;50.990;7.124;2022-10-31T08:04:49;14.70;99.90
5631;DHT22;2837;50.990;7.124;2022-10-31T08:07:15;14.60;99.90
5631;DHT22;2837;50.990;7.124;2022-10-31T08:09:40;14.80;99.90
5631;DHT22;2837;50.990;7.124;2022-10-31T08:12:06;14.80;99.90
5631;DHT22;2837;50.990;7.124;2022-10-31T08:14:32;14.90;99.90
5631;DHT22;2837;50.990;7.124;2022-10-31T08:16:57;14.90;99.90
5631;DHT22;2837;50.990;7.124;2022-10-31T08:19:23;14.80;99.90
5631;DHT22;2837;50.990;7.124;2022-10-31T08:21:52;14.80;99.90
5631;DHT22;2837;50.990;7.124;2022-10-31T08:24:20;14.80;99.90
5631;DHT22;2837;50.990;7.124;2022-10-31T08:26:46;14.90;99.90
5631;DHT22;2837;50.990;7.124;2022-10-31T08:29:12;14.90;99.90
5631;DHT22;2837;50.990;7.124;2022-10-31T08:31:38;14.80;99.90
5631;DHT22;2837;50.990;7.124;2022-10-31T08:34:03;14.90;99.90
5631;DHT22;2837;50.990;7.124;2022-10-31T08:36:29;14.80;99.90
5631;DHT22;2837;50.990;7.124;2022-10-31T08:38:55;14.90;99.90
5631;DHT22;2837;50.990;7.124;2022-10-31T08:41:21;14.90;99.90
5631;DHT22;2837;50.990;7.124;2022-10-31T08:43:47;14.90;99.90
5631;DHT22;2837;50.990;7.124;2022-10-31T08:46:12;15.00;99.90
5631;DHT22;2837;50.990;7.124;2022-10-31T08:48:38;14.90;99.90
5631;DHT22;2837;50.990;7.124;2022-10-31T08:51:04;15.00;99.90
5631;DHT22;2837;50.990;7.124;2022-10-31T08:53:30;15.00;99.90
5631;DHT22;2837;50.990;7.124;2022-10-31T08:55:56;15.00;99.90
5631;DHT22;2837;50.990;7.124;2022-10-31T08:58:23;15.00;99.90
5631;DHT22;2837;50.990;7.124;2022-10-31T09:00:50;15.10;99.90
5631;DHT22;2837;50.990;7.124;2022-10-31T09:03:22;15.10;99.90
5631;DHT22;2837;50.990;7.124;2022-10-31T09:05:48;15.20;99.90
5631;DHT22;2837;50.990;7.124;2022-10-31T09:08:14;15.10;99.90
5631;DHT22;2837;50.990;7.124;2022-10-31T09:10:41;15.20;99.90
5631;DHT22;2837;50.990;7.124;2022-10-31T09:13:10;15.20;99.90
5631;DHT22;2837;50.990;7.124;2022-10-31T09:15:39;15.30;99.90
5631;DHT22;2837;50.990;7.124;2022-10-31T09:18:06;15.30;99.90
5631;DHT22;2837;50.990;7.124;2022-10-31T09:20:33;15.30;99.90
5631;DHT22;2837;50.990;7.124;2022-10-31T09:23:04;15.30;99.90
5631;DHT22;2837;50.990;7.124;2022-10-31T09:25:30;15.40;99.90
5631;DHT22;2837;50.990;7.124;2022-10-31T09:27:58;15.40;99.90
5631;DHT22;2837;50.990;7.124;2022-10-31T09:30:28;15.40;99.90
5631;DHT22;2837;50.990;7.124;2022-10-31T09:32:55;15.40;99.90
5631;DHT22;2837;50.990;7.124;2022-10-31T09:35:21;15.50;99.90
5631;DHT22;2837;50.990;7.124;2022-10-31T09:37:47;15.50;99.90
5631;DHT22;2837;50.990;7.124;2022-10-31T09:40:12;15.50;99.90
5631;DHT22;2837;50.990;7.124;2022-10-31T09:45:23;15.60;99.90
5631;DHT22;2837;50.990;7.124;2022-10-31T09:50:58;15.70;99.90
5631;DHT22;2837;50.990;7.124;2022-10-31T09:53:48;15.70;99.90
5631;DHT22;2837;50.990;7.124;2022-10-31T09:56:18;15.80;99.90
5631;DHT22;2837;50.990;7.124;2022-10-31T09:58:52;15.80;99.90
5631;DHT22;2837;50.990;7.124;2022-10-31T10:01:30;15.80;99.90
5631;DHT22;2837;50.990;7.124;2022-10-31T10:04:17;15.90;99.90
5631;DHT22;2837;50.990;7.124;2022-10-31T10:06:47;15.90;99.90
5631;DHT22;2837;50.990;7.124;2022-10-31T10:09:14;16.00;99.90
5631;DHT22;2837;50.990;7.124;2022-10-31T10:17:26;16.10;99.90
5631;DHT22;2837;50.990;7.124;2022-10-31T10:25:39;16.20;99.90
5631;DHT22;2837;50.990;7.124;2022-10-31T10:28:11;16.20;99.90
5631;DHT22;2837;50.990;7.124;2022-10-31T10:30:42;16.20;99.90
5631;DHT22;2837;50.990;7.124;2022-10-31T10:33:35;16.20;99.90
5631;DHT22;2837;50.990;7.124;2022-10-31T10:36:41;16.20;99.90
5631;DHT22;2837;50.990;7.124;2022-10-31T10:39:33;16.20;99.90
5631;DHT22;2837;50.990;7.124;2022-10-31T10:42:01;16.20;99.90
5631;DHT22;2837;50.990;7.124;2022-10-31T10:44:51;16.30;99.90
5631;DHT22;2837;50.990;7.124;2022-10-31T10:47:42;16.30;99.90
5631;DHT22;2837;50.990;7.124;2022-10-31T10:50:35;16.30;99.90
5631;DHT22;2837;50.990;7.124;2022-10-31T10:56:00;16.30;99.90
5631;DHT22;2837;50.990;7.124;2022-10-31T10:58:29;16.30;99.90
5631;DHT22;2837;50.990;7.124;2022-10-31T11:00:55;16.40;99.90
5631;DHT22;2837;50.990;7.124;2022-10-31T11:03:20;16.40;99.90
5631;DHT22;2837;50.990;7.124;2022-10-31T11:05:56;16.40;99.90
5631;DHT22;2837;50.990;7.124;2022-10-31T11:08:25;16.40;99.90
5631;DHT22;2837;50.990;7.124;2022-10-31T11:13:28;16.50;99.90
5631;DHT22;2837;50.990;7.124;2022-10-31T11:16:09;16.50;99.90
5631;DHT22;2837;50.990;7.124;2022-10-31T11:18:42;16.60;99.90
5631;DHT22;2837;50.990;7.124;2022-10-31T11:21:27;16.70;99.90
5631;DHT22;2837;50.990;7.124;2022-10-31T11:24:11;16.70;99.90
5631;DHT22;2837;50.990;7.124;2022-10-31T11:26:38;16.70;99.90
5631;DHT22;2837;50.990;7.124;2022-10-31T11:29:05;16.70;99.90
5631;DHT22;2837;50.990;7.124;2022-10-31T11:31:36;16.70;99.90
5631;DHT22;2837;50.990;7.124;2022-10-31T11:34:04;16.80;99.90
5631;DHT22;2837;50.990;7.124;2022-10-31T11:36:37;16.80;99.90
5631;DHT22;2837;50.990;7.124;2022-10-31T11:39:05;16.80;99.90
5631;DHT22;2837;50.990;7.124;2022-10-31T11:41:38;16.90;99.90
5631;DHT22;2837;50.990;7.124;2022-10-31T11:44:15;17.00;99.90
5631;DHT22;2837;50.990;7.124;2022-10-31T11:46:48;17.00;99.90
5631;DHT22;2837;50.990;7.124;2022-10-31T11:49:30;17.00;99.90
5631;DHT22;2837;50.990;7.124;2022-10-31T11:52:00;17.00;99.90
5631;DHT22;2837;50.990;7.124;2022-10-31T11:54:29;17.00;99.90
5631;DHT22;2837;50.990;7.124;2022-10-31T11:56:56;17.00;99.90
5631;DHT22;2837;50.990;7.124;2022-10-31T11:59:28;17.00;99.90
5631;DHT22;2837;50.990;7.124;2022-10-31T12:01:56;17.00;99.90
5631;DHT22;2837;50.990;7.124;2022-10-31T12:04:45;17.00;99.90
5631;DHT22;2837;50.990;7.124;2022-10-31T12:07:11;17.00;99.90
5631;DHT22;2837;50.990;7.124;2022-10-31T12:09:38;17.00;99.90
5631;DHT22;2837;50.990;7.124;2022-10-31T12:17:36;17.00;99.90
5631;DHT22;2837;50.990;7.124;2022-10-31T12:40:03;17.00;99.90
5631;DHT22;2837;50.990;7.124;2022-10-31T12:48:36;17.00;99.90
5631;DHT22;2837;50.990;7.124;2022-10-31T12:59:43;17.10;99.90
5631;DHT22;2837;50.990;7.124;2022-10-31T13:02:19;17.10;99.90
5631;DHT22;2837;50.990;7.124;2022-10-31T13:07:24;17.10;99.90
5631;DHT22;2837;50.990;7.124;2022-10-31T13:10:29;17.10;99.90
5631;DHT22;2837;50.990;7.124;2022-10-31T13:12:49;17.20;99.90
5631;DHT22;2837;50.990;7.124;2022-10-31T13:15:24;17.20;99.90
5631;DHT22;2837;50.990;7.124;2022-10-31T13:17:54;17.20;99.90
5631;DHT22;2837;50.990;7.124;2022-10-31T13:20:31;17.30;99.90
5631;DHT22;2837;50.990;7.124;2022-10-31T13:23:11;17.20;99.90
5631;DHT22;2837;50.990;7.124;2022-10-31T13:25:44;17.20;99.90
5631;DHT22;2837;50.990;7.124;2022-10-31T13:28:38;17.20;99.90
5631;DHT22;2837;50.990;7.124;2022-10-31T13:31:06;17.20;99.90
5631;DHT22;2837;50.990;7.124;2022-10-31T13:33:46;17.20;99.90
5631;DHT22;2837;50.990;7.124;2022-10-31T13:41:39;17.30;99.90
5631;DHT22;2837;50.990;7.124;2022-10-31T13:44:22;17.30;99.90
5631;DHT22;2837;50.990;7.124;2022-10-31T13:46:51;17.30;99.90
5631;DHT22;2837;50.990;7.124;2022-10-31T13:54:38;17.40;99.90
5631;DHT22;2837;50.990;7.124;2022-10-31T13:57:21;17.40;99.90
5631;DHT22;2837;50.990;7.124;2022-10-31T13:59:53;17.50;99.90
5631;DHT22;2837;50.990;7.124;2022-10-31T14:02:26;17.50;99.90
5631;DHT22;2837;50.990;7.124;2022-10-31T14:04:59;17.40;99.90
5631;DHT22;2837;50.990;7.124;2022-10-31T14:07:26;17.40;99.90
5631;DHT22;2837;50.990;7.124;2022-10-31T14:12:48;17.40;99.90
5631;DHT22;2837;50.990;7.124;2022-10-31T14:15:27;17.40;99.90
5631;DHT22;2837;50.990;7.124;2022-10-31T14:17:57;17.40;99.90
5631;DHT22;2837;50.990;7.124;2022-10-31T14:20:39;17.40;99.90
5631;DHT22;2837;50.990;7.124;2022-10-31T14:23:32;17.40;99.90
5631;DHT22;2837;50.990;7.124;2022-10-31T14:26:29;17.40;99.90
5631;DHT22;2837;50.990;7.124;2022-10-31T14:31:51;17.30;99.90
5631;DHT22;2837;50.990;7.124;2022-10-31T14:39:51;17.40;99.90
5631;DHT22;2837;50.990;7.124;2022-10-31T14:45:05;17.40;99.90
5631;DHT22;2837;50.990;7.124;2022-10-31T14:50:29;17.40;99.90
5631;DHT22;2837;50.990;7.124;2022-10-31T14:53:01;17.40;99.90
5631;DHT22;2837;50.990;7.124;2022-10-31T14:55:27;17.40;99.90
5631;DHT22;2837;50.990;7.124;2022-10-31T14:58:06;17.40;99.90
5631;DHT22;2837;50.990;7.124;2022-10-31T15:00:33;17.40;99.90
5631;DHT22;2837;50.990;7.124;2022-10-31T15:03:07;17.50;99.90
5631;DHT22;2837;50.990;7.124;2022-10-31T15:05:51;17.50;99.90
5631;DHT22;2837;50.990;7.124;2022-10-31T15:13:47;17.40;99.90
5631;DHT22;2837;50.990;7.124;2022-10-31T15:16:17;17.50;99.90
5631;DHT22;2837;50.990;7.124;2022-10-31T15:18:53;17.50;99.90
5631;DHT22;2837;50.990;7.124;2022-10-31T15:21:21;17.50;99.90
5631;DHT22;2837;50.990;7.124;2022-10-31T15:23:47;17.50;99.90
5631;DHT22;2837;50.990;7.124;2022-10-31T15:26:18;17.40;99.90
5631;DHT22;2837;50.990;7.124;2022-10-31T15:28:45;17.50;99.90
5631;DHT22;2837;50.990;7.124;2022-10-31T15:31:16;17.50;99.90
5631;DHT22;2837;50.990;7.124;2022-10-31T15:33:46;17.40;99.90
5631;DHT22;2837;50.990;7.124;2022-10-31T15:36:19;17.40;99.90
5631;DHT22;2837;50.990;7.124;2022-10-31T15:38:46;17.40;99.90
5631;DHT22;2837;50.990;7.124;2022-10-31T15:46:53;17.30;99.90
5631;DHT22;2837;50.990;7.124;2022-10-31T15:49:39;17.30;99.90
5631;DHT22;2837;50.990;7.124;2022-10-31T15:52:12;17.30;99.90
5631;DHT22;2837;50.990;7.124;2022-10-31T15:54:50;17.30;99.90
5631;DHT22;2837;50.990;7.124;2022-10-31T15:57:16;17.30;99.90
5631;DHT22;2837;50.990;7.124;2022-10-31T15:59:46;17.20;99.90
5631;DHT22;2837;50.990;7.124;2022-10-31T16:02:13;17.20;99.90
5631;DHT22;2837;50.990;7.124;2022-10-31T16:04:55;17.20;99.90
5631;DHT22;2837;50.990;7.124;2022-10-31T16:07:22;17.20;99.90
5631;DHT22;2837;50.990;7.124;2022-10-31T16:10:00;17.20;99.90
5631;DHT22;2837;50.990;7.124;2022-10-31T16:12:46;17.10;99.90
5631;DHT22;2837;50.990;7.124;2022-10-31T16:15:17;17.20;99.90
5631;DHT22;2837;50.990;7.124;2022-10-31T16:17:46;17.10;99.90
5631;DHT22;2837;50.990;7.124;2022-10-31T16:20:22;17.10;99.90
5631;DHT22;2837;50.990;7.124;2022-10-31T16:22:51;17.10;99.90
5631;DHT22;2837;50.990;7.124;2022-10-31T16:25:27;17.10;99.90
5631;DHT22;2837;50.990;7.124;2022-10-31T16:27:58;17.00;99.90
5631;DHT22;2837;50.990;7.124;2022-10-31T16:32:57;17.00;99.90
5631;DHT22;2837;50.990;7.124;2022-10-31T16:35:36;16.90;99.90
5631;DHT22;2837;50.990;7.124;2022-10-31T16:38:03;17.00;99.90
5631;DHT22;2837;50.990;7.124;2022-10-31T16:40:30;17.00;99.90
5631;DHT22;2837;50.990;7.124;2022-10-31T16:42:57;17.00;99.90
5631;DHT22;2837;50.990;7.124;2022-10-31T16:45:26;17.00;99.90
5631;DHT22;2837;50.990;7.124;2022-10-31T16:47:52;17.00;99.90
5631;DHT22;2837;50.990;7.124;2022-10-31T16:50:20;16.90;99.90
5631;DHT22;2837;50.990;7.124;2022-10-31T16:52:46;16.90;99.90
5631;DHT22;2837;50.990;7.124;2022-10-31T16:55:16;16.90;99.90
5631;DHT22;2837;50.990;7.124;2022-10-31T16:57:45;16.90;99.90
5631;DHT22;2837;50.990;7.124;2022-10-31T17:00:20;16.90;99.90
5631;DHT22;2837;50.990;7.124;2022-10-31T17:02:47;16.90;99.90
5631;DHT22;2837;50.990;7.124;2022-10-31T17:05:15;16.90;99.90
5631;DHT22;2837;50.990;7.124;2022-10-31T17:07:41;16.90;99.90
5631;DHT22;2837;50.990;7.124;2022-10-31T17:10:07;16.90;99.90
5631;DHT22;2837;50.990;7.124;2022-10-31T17:12:34;16.90;99.90
5631;DHT22;2837;50.990;7.124;2022-10-31T17:15:00;16.90;99.90
5631;DHT22;2837;50.990;7.124;2022-10-31T17:17:26;16.90;99.90
5631;DHT22;2837;50.990;7.124;2022-10-31T17:19:51;16.90;99.90
5631;DHT22;2837;50.990;7.124;2022-10-31T17:22:17;17.00;99.90
5631;DHT22;2837;50.990;7.124;2022-10-31T17:24:42;17.00;99.90
5631;DHT22;2837;50.990;7.124;2022-10-31T17:27:08;17.00;99.90
5631;DHT22;2837;50.990;7.124;2022-10-31T17:29:34;16.90;99.90
5631;DHT22;2837;50.990;7.124;2022-10-31T17:31:59;16.90;99.90
5631;DHT22;2837;50.990;7.124;2022-10-31T17:34:27;16.90;99.90
5631;DHT22;2837;50.990;7.124;2022-10-31T17:36:52;16.90;99.90
5631;DHT22;2837;50.990;7.124;2022-10-31T17:39:18;16.90;99.90
5631;DHT22;2837;50.990;7.124;2022-10-31T17:41:50;16.80;99.90
5631;DHT22;2837;50.990;7.124;2022-10-31T17:44:17;16.80;99.90
5631;DHT22;2837;50.990;7.124;2022-10-31T17:46:42;16.80;99.90
5631;DHT22;2837;50.990;7.124;2022-10-31T17:49:10;16.90;99.90
5631;DHT22;2837;50.990;7.124;2022-10-31T17:51:36;16.80;99.90
5631;DHT22;2837;50.990;7.124;2022-10-31T17:54:02;16.80;99.90
5631;DHT22;2837;50.990;7.124;2022-10-31T17:56:29;16.80;99.90
5631;DHT22;2837;50.990;7.124;2022-10-31T17:58:55;16.80;99.90
5631;DHT22;2837;50.990;7.124;2022-10-31T18:01:22;16.80;99.90
5631;DHT22;2837;50.990;7.124;2022-10-31T18:03:48;16.70;99.90
5631;DHT22;2837;50.990;7.124;2022-10-31T18:06:14;16.80;99.90
5631;DHT22;2837;50.990;7.124;2022-10-31T18:08:42;16.80;99.90
5631;DHT22;2837;50.990;7.124;2022-10-31T18:11:18;16.80;99.90
5631;DHT22;2837;50.990;7.124;2022-10-31T18:13:44;16.70;99.90
5631;DHT22;2837;50.990;7.124;2022-10-31T18:16:14;16.70;99.90
5631;DHT22;2837;50.990;7.124;2022-10-31T18:18:40;16.70;99.90
5631;DHT22;2837;50.990;7.124;2022-10-31T18:21:05;16.70;99.90
5631;DHT22;2837;50.990;7.124;2022-10-31T18:23:31;16.70;99.90
5631;DHT22;2837;50.990;7.124;2022-10-31T18:25:57;16.70;99.90
5631;DHT22;2837;50.990;7.124;2022-10-31T18:28:22;16.70;99.90
5631;DHT22;2837;50.990;7.124;2022-10-31T18:30:48;16.70;99.90
5631;DHT22;2837;50.990;7.124;2022-10-31T18:33:13;16.70;99.90
5631;DHT22;2837;50.990;7.124;2022-10-31T18:35:39;16.70;99.90
5631;DHT22;2837;50.990;7.124;2022-10-31T18:38:06;16.60;99.90
5631;DHT22;2837;50.990;7.124;2022-10-31T18:40:33;16.60;99.90
5631;DHT22;2837;50.990;7.124;2022-10-31T18:42:59;16.60;99.90
5631;DHT22;2837;50.990;7.124;2022-10-31T18:45:25;16.60;99.90
5631;DHT22;2837;50.990;7.124;2022-10-31T18:47:51;16.60;99.90
5631;DHT22;2837;50.990;7.124;2022-10-31T18:50:17;16.60;99.90
5631;DHT22;2837;50.990;7.124;2022-10-31T18:52:42;16.60;99.90
5631;DHT22;2837;50.990;7.124;2022-10-31T18:55:08;16.60;99.90
5631;DHT22;2837;50.990;7.124;2022-10-31T18:57:33;16.60;99.90
5631;DHT22;2837;50.990;7.124;2022-10-31T18:59:59;16.60;99.90
5631;DHT22;2837;50.990;7.124;2022-10-31T19:02:24;16.50;99.90
5631;DHT22;2837;50.990;7.124;2022-10-31T19:04:50;16.60;99.90
5631;DHT22;2837;50.990;7.124;2022-10-31T19:07:16;16.50;99.90
5631;DHT22;2837;50.990;7.124;2022-10-31T19:09:41;16.50;99.90
5631;DHT22;2837;50.990;7.124;2022-10-31T19:12:07;16.50;99.90
5631;DHT22;2837;50.990;7.124;2022-10-31T19:14:32;16.50;99.90
5631;DHT22;2837;50.990;7.124;2022-10-31T19:16:58;16.50;99.90
5631;DHT22;2837;50.990;7.124;2022-10-31T19:19:23;16.50;99.90
5631;DHT22;2837;50.990;7.124;2022-10-31T19:21:49;16.50;99.90
5631;DHT22;2837;50.990;7.124;2022-10-31T19:24:14;16.50;99.90
5631;DHT22;2837;50.990;7.124;2022-10-31T19:26:40;16.50;99.90
5631;DHT22;2837;50.990;7.124;2022-10-31T19:29:05;16.50;99.90
5631;DHT22;2837;50.990;7.124;2022-10-31T19:31:31;16.50;99.90
5631;DHT22;2837;50.990;7.124;2022-10-31T19:33:57;16.40;99.90
5631;DHT22;2837;50.990;7.124;2022-10-31T19:36:22;16.50;99.90
5631;DHT22;2837;50.990;7.124;2022-10-31T19:38:49;16.50;99.90
5631;DHT22;2837;50.990;7.124;2022-10-31T19:41:21;16.40;99.90
5631;DHT22;2837;50.990;7.124;2022-10-31T19:43:47;16.40;99.90
5631;DHT22;2837;50.990;7.124;2022-10-31T19:46:15;16.40;99.90
5631;DHT22;2837;50.990;7.124;2022-10-31T19:48:41;16.40;99.90
5631;DHT22;2837;50.990;7.124;2022-10-31T19:51:12;16.40;99.90
5631;DHT22;2837;50.990;7.124;2022-10-31T19:53:38;16.40;99.90
5631;DHT22;2837;50.990;7.124;2022-10-31T19:56:13;16.30;99.90
5631;DHT22;2837;50.990;7.124;2022-10-31T19:58:39;16.40;99.90
5631;DHT22;2837;50.990;7.124;2022-10-31T20:01:07;16.30;99.90
5631;DHT22;2837;50.990;7.124;2022-10-31T20:03:33;16.30;99.90
5631;DHT22;2837;50.990;7.124;2022-10-31T20:06:02;16.30;99.90
5631;DHT22;2837;50.990;7.124;2022-10-31T20:08:28;16.30;99.90
5631;DHT22;2837;50.990;7.124;2022-10-31T20:10:59;16.30;99.90
5631;DHT22;2837;50.990;7.124;2022-10-31T20:13:27;16.30;99.90
5631;DHT22;2837;50.990;7.124;2022-10-31T20:16:01;16.40;99.90
5631;DHT22;2837;50.990;7.124;2022-10-31T20:18:27;16.30;99.90
5631;DHT22;2837;50.990;7.124;2022-10-31T20:20:59;16.30;99.90
5631;DHT22;2837;50.990;7.124;2022-10-31T20:23:25;16.30;99.90
5631;DHT22;2837;50.990;7.124;2022-10-31T20:25:50;16.30;99.90
5631;DHT22;2837;50.990;7.124;2022-10-31T20:28:16;16.30;99.90
5631;DHT22;2837;50.990;7.124;2022-10-31T20:30:42;16.40;99.90
5631;DHT22;2837;50.990;7.124;2022-10-31T20:33:08;16.30;99.90
5631;DHT22;2837;50.990;7.124;2022-10-31T20:35:38;16.30;99.90
5631;DHT22;2837;50.990;7.124;2022-10-31T20:38:04;16.30;99.90
5631;DHT22;2837;50.990;7.124;2022-10-31T20:40:30;16.30;99.90
5631;DHT22;2837;50.990;7.124;2022-10-31T20:42:56;16.30;99.90
5631;DHT22;2837;50.990;7.124;2022-10-31T20:45:22;16.40;99.90
5631;DHT22;2837;50.990;7.124;2022-10-31T20:47:48;16.40;99.90
5631;DHT22;2837;50.990;7.124;2022-10-31T20:50:13;16.40;99.90
5631;DHT22;2837;50.990;7.124;2022-10-31T20:52:39;16.40;99.90
5631;DHT22;2837;50.990;7.124;2022-10-31T20:55:05;16.40;99.90
5631;DHT22;2837;50.990;7.124;2022-10-31T20:57:31;16.40;99.90
5631;DHT22;2837;50.990;7.124;2022-10-31T20:59:57;16.40;99.90
5631;DHT22;2837;50.990;7.124;2022-10-31T21:02:22;16.40;99.90
5631;DHT22;2837;50.990;7.124;2022-10-31T21:04:48;16.30;99.90
5631;DHT22;2837;50.990;7.124;2022-10-31T21:07:13;16.40;99.90
5631;DHT22;2837;50.990;7.124;2022-10-31T21:09:39;16.40;99.90
5631;DHT22;2837;50.990;7.124;2022-10-31T21:12:05;16.40;99.90
5631;DHT22;2837;50.990;7.124;2022-10-31T21:14:30;16.40;99.90
5631;DHT22;2837;50.990;7.124;2022-10-31T21:16:56;16.50;99.90
5631;DHT22;2837;50.990;7.124;2022-10-31T21:19:21;16.40;99.90
5631;DHT22;2837;50.990;7.124;2022-10-31T21:21:47;16.40;99.90
5631;DHT22;2837;50.990;7.124;2022-10-31T21:24:16;16.40;99.90
5631;DHT22;2837;50.990;7.124;2022-10-31T21:26:44;16.30;99.90
5631;DHT22;2837;50.990;7.124;2022-10-31T21:29:10;16.30;99.90
5631;DHT22;2837;50.990;7.124;2022-10-31T21:31:37;16.30;99.90
5631;DHT22;2837;50.990;7.124;2022-10-31T21:34:03;16.40;99.90
5631;DHT22;2837;50.990;7.124;2022-10-31T21:36:28;16.30;99.90
5631;DHT22;2837;50.990;7.124;2022-10-31T21:38:54;16.30;99.90
5631;DHT22;2837;50.990;7.124;2022-10-31T21:41:21;16.30;99.90
5631;DHT22;2837;50.990;7.124;2022-10-31T21:43:48;16.30;99.90
5631;DHT22;2837;50.990;7.124;2022-10-31T21:46:19;16.30;99.90
5631;DHT22;2837;50.990;7.124;2022-10-31T21:48:46;16.30;99.90
5631;DHT22;2837;50.990;7.124;2022-10-31T21:51:15;16.30;99.90
5631;DHT22;2837;50.990;7.124;2022-10-31T21:53:40;16.30;99.90
5631;DHT22;2837;50.990;7.124;2022-10-31T21:56:24;16.30;99.90
5631;DHT22;2837;50.990;7.124;2022-10-31T21:58:51;16.30;99.90
